Latest Weather Observations for Horsley Park

IDN60801

Issued at 3:03 pm EST Tuesday 21 April 2015 (issued every 30 minutes, with the page automatically refreshed every 10 minutes)

About weather observations | Map of weather stations | Latest weather observations for NSW | Other Formats
Station Details ID: 067119 Name: HORSLEY PARK EQUESTRIAN CENTRE AWS Lat: -33.85 Lon: 150.86 Height: 100.0 m
Data from the previous 72 hours. | See also: Recent months at Horsley Park
Date/Time
EST
Temp
°C
App
Temp
°C
Dew
Point
Rel
Hum
%
Delta-T
°C
Wind Press
QNH
hPa
Press
MSL
hPa
Rain
since 9 am
mm
Dir
 
Spd
km/h
Gust
km/h
Spd
kts
Gust
kts
21/03:00pm 13.5 10.0 11.0 85 1.3 SSW 20 43 11 23 - - 4.4
21/02:30pm 13.5 9.7 11.0 85 1.3 SSW 22 41 12 22 - - 3.8
21/02:00pm 14.2 10.0 11.0 81 1.7 SSW 24 48 13 26 - - 3.2
21/01:30pm 14.3 10.2 11.3 82 1.6 S 24 43 13 23 - - 3.2
21/01:15pm 14.4 9.5 11.2 81 1.7 SSW 28 48 15 26 - - 3.2
21/01:00pm 14.5 11.1 11.3 81 1.7 S 20 32 11 17 - - 3.2
21/12:30pm 15.0 9.7 11.2 78 2.0 S 30 52 16 28 - - 3.0
21/12:11pm 14.6 9.8 11.6 82 1.6 S 28 52 15 28 - - 3.0
21/12:00pm 14.3 9.9 11.6 84 1.5 S 26 48 14 26 - - 3.0
21/11:30am 13.7 9.4 11.9 89 1.0 S 26 43 14 23 - - 3.0
21/11:00am 13.6 10.0 12.0 90 0.9 S 22 39 12 21 - - 2.4
21/10:30am 13.7 9.8 12.1 90 0.9 S 24 41 13 22 - - 1.4
21/10:00am 13.8 10.0 12.4 91 0.8 SSW 24 41 13 22 - - 0.6
21/09:30am 13.9 9.6 11.9 88 1.1 S 26 43 14 23 - - 0.0
21/09:02am 13.9 8.4 11.9 88 1.1 S 32 50 17 27 - - 0.0
21/09:00am 13.9 8.4 11.9 88 1.1 S 32 48 17 26 - - 90.8
21/08:56am 13.8 9.0 11.8 88 1.1 S 28 46 15 25 - - 90.8
21/08:30am 13.7 9.9 12.3 91 0.8 S 24 46 13 25 - - 90.6
21/08:25am 13.7 9.1 12.3 91 0.8 S 28 46 15 25 - - 90.4
21/08:00am 13.8 9.5 12.2 90 0.9 S 26 39 14 21 - - 88.8
21/07:30am 13.5 11.3 12.2 92 0.7 S 15 35 8 19 - - 87.6
21/07:00am 13.4 9.8 12.0 91 0.8 SSW 22 39 12 21 - - 85.8
21/06:30am 13.3 8.6 11.9 91 0.8 SSW 28 46 15 25 - - 84.4
21/06:00am 13.5 9.9 11.9 90 0.9 S 22 37 12 20 - - 81.6
21/05:30am 13.6 9.7 12.2 91 0.8 SSW 24 41 13 22 - - 79.4
21/05:03am 13.7 8.7 12.3 91 0.8 S 30 50 16 27 - - 78.4
21/05:00am 13.7 8.3 12.3 91 0.8 S 32 48 17 26 - - 78.0
21/04:50am 13.7 8.3 12.3 91 0.8 S 32 50 17 27 - - 77.0
21/04:30am 13.5 9.5 11.9 90 0.9 S 24 43 13 23 - - 75.4
21/04:00am 13.6 9.3 12.0 90 0.9 S 26 48 14 26 - - 73.0
21/03:57am 13.7 9.0 12.1 90 0.9 S 28 48 15 26 - - 73.0
21/03:30am 13.6 9.7 12.0 90 0.9 S 24 39 13 21 - - 71.2
21/03:00am 13.6 9.6 11.8 89 1.0 S 24 43 13 23 - - 69.6
21/02:30am 13.8 10.8 12.4 91 0.8 S 20 39 11 21 - - 68.2
21/02:00am 13.9 10.1 12.3 90 0.9 S 24 43 13 23 - - 66.6
21/01:30am 14.1 10.6 12.1 88 1.1 S 22 41 12 22 - - 65.0
21/01:00am 13.9 10.4 12.1 89 1.0 S 22 41 12 22 - - 63.6
21/12:30am 14.1 9.4 12.0 87 1.1 S 28 50 15 27 - - 62.8
21/12:00am 14.3 9.3 12.3 88 1.1 S 30 52 16 28 - - 62.0
 
Date/Time
EST
Temp
°C
App
Temp
°C
Dew
Point
Rel
Hum
%
Delta-T
°C
Wind Press
QNH
hPa
Press
MSL
hPa
Rain
since 9 am
mm
Dir
 
Spd
km/h
Gust
km/h
Spd
kts
Gust
kts
20/11:57pm 14.2 9.6 12.4 89 1.0 S 28 50 15 27 - - 62.0
20/11:30pm 14.1 9.9 12.3 89 1.0 S 26 43 14 23 - - 61.0
20/11:00pm 14.4 10.7 12.6 89 1.0 S 24 43 13 23 - - 60.0
20/10:35pm 14.5 10.1 12.9 90 0.9 S 28 46 15 25 - - 59.4
20/10:30pm 14.5 10.9 13.0 91 0.8 S 24 46 13 25 - - 59.2
20/10:01pm 14.4 10.0 13.0 91 0.8 S 28 46 15 25 - - 58.4
20/10:00pm 14.4 10.4 13.0 91 0.8 S 26 41 14 22 - - 58.4
20/09:31pm 14.7 10.4 13.1 90 0.9 S 28 48 15 26 - - 58.0
20/09:30pm 14.6 10.6 13.0 90 0.9 S 26 48 14 26 - - 58.0
20/09:00pm 14.7 10.8 13.4 92 0.7 S 26 50 14 27 - - 57.2
20/08:30pm 14.6 11.1 13.3 92 0.7 S 24 37 13 20 - - 55.2
20/08:00pm 14.7 11.3 13.6 93 0.6 S 24 52 13 28 - - 52.8
20/07:37pm 14.8 10.7 13.8 94 0.6 S 28 46 15 25 - - 51.4
20/07:30pm 14.8 11.8 13.8 94 0.6 S 22 41 12 22 - - 50.8
20/07:00pm 14.8 12.2 13.8 94 0.6 S 20 48 11 26 - - 48.0
20/06:30pm 14.9 11.9 13.8 93 0.6 SSE 22 48 12 26 - - 43.2
20/06:04pm 15.0 10.9 13.9 93 0.6 S 28 46 15 25 - - 40.0
20/06:00pm 14.9 11.2 13.9 94 0.6 S 26 44 14 24 - - 39.6
20/05:39pm 15.1 11.1 14.1 94 0.6 S 28 57 15 31 - - 38.4
20/05:30pm 14.7 11.7 13.7 94 0.6 S 22 33 12 18 - - 37.8
20/05:00pm 15.0 11.3 13.9 93 0.6 S 26 44 14 24 - - 33.0
20/04:30pm 15.1 12.1 13.8 92 0.7 S 22 46 12 25 - - 31.4
20/04:00pm 15.6 12.8 14.3 92 0.7 S 22 43 12 23 - - 30.6
20/03:30pm 15.4 13.2 14.8 96 0.3 S 20 37 11 20 - - 30.6
20/03:00pm 14.1 11.9 13.3 95 0.4 SW 17 26 9 14 - - 27.4
20/02:30pm 14.4 12.0 13.8 96 0.3 SSW 19 26 10 14 - - 24.6
20/02:00pm 14.6 10.8 13.6 94 0.6 SSW 26 41 14 22 - - 20.0
20/01:57pm 14.7 10.6 13.7 94 0.6 SSW 28 43 15 23 - - 19.4
20/01:30pm 14.3 12.9 13.3 94 0.6 SSW 13 20 7 11 - - 13.8
20/01:00pm 14.1 11.8 13.1 94 0.6 SSW 17 24 9 13 - - 10.4
20/12:30pm 14.1 11.8 13.1 94 0.6 SSW 17 28 9 15 - - 10.4
20/12:00pm 13.7 11.4 12.9 95 0.4 SSW 17 28 9 15 - - 10.0
20/11:30am 13.3 10.3 12.4 94 0.5 SSW 20 33 11 18 - - 9.6
20/11:00am 13.4 10.8 12.1 92 0.7 SW 17 32 9 17 - - 6.6
20/10:30am 13.5 11.0 12.2 92 0.7 SSW 17 26 9 14 - - 5.6
20/10:00am 13.2 9.7 12.1 93 0.6 S 22 43 12 23 - - 4.4
20/09:30am 13.3 11.4 11.9 91 0.8 SSW 13 26 7 14 - - 1.2
20/09:00am 13.3 11.0 11.9 91 0.8 SSW 15 20 8 11 - - 6.8
20/08:30am 12.7 10.3 11.3 91 0.7 SW 15 20 8 11 - - 6.0
20/08:00am 12.2 9.6 10.8 91 0.7 SSW 15 24 8 13 - - 6.0
20/07:30am 11.7 8.5 10.1 90 0.8 SW 17 22 9 12 - - 6.0
20/07:00am 11.5 9.1 9.9 90 0.8 SW 13 19 7 10 - - 4.8
20/06:30am 11.5 8.6 9.8 89 0.9 SW 15 22 8 12 - - 4.4
20/06:00am 11.2 8.6 9.5 89 0.9 SW 13 20 7 11 - - 3.8
20/05:30am 11.1 8.5 9.4 89 0.9 SW 13 20 7 11 - - 3.8
20/05:00am 11.2 8.2 9.3 88 1.0 SW 15 24 8 13 - - 3.6
20/04:30am 11.1 8.5 9.2 88 1.0 SW 13 22 7 12 - - 3.6
20/04:00am 11.0 7.6 9.1 88 1.0 SW 17 28 9 15 - - 3.6
20/03:30am 11.1 7.7 9.2 88 1.0 SW 17 24 9 13 - - 3.6
20/03:00am 11.2 9.0 9.5 89 0.9 SW 11 20 6 11 - - 3.4
20/02:30am 11.7 8.7 9.1 84 1.3 SW 15 22 8 12 - - 2.6
20/02:00am 11.7 8.4 9.6 87 1.1 SW 17 22 9 12 - - 2.6
20/01:30am 11.5 8.7 9.9 90 0.8 SSW 15 20 8 11 - - 2.2
20/01:00am 11.6 9.6 10.0 90 0.8 SW 11 19 6 10 - - 2.0
20/12:30am 11.4 9.7 10.0 91 0.7 SW 9 15 5 8 - - 2.0
20/12:00am 11.3 9.6 10.0 92 0.7 WSW 9 15 5 8 - - 1.8
 
Date/Time
EST
Temp
°C
App
Temp
°C
Dew
Point
Rel
Hum
%
Delta-T
°C
Wind Press
QNH
hPa
Press
MSL
hPa
Rain
since 9 am
mm
Dir
 
Spd
km/h
Gust
km/h
Spd
kts
Gust
kts
19/11:30pm 11.3 9.6 9.9 91 0.7 WSW 9 15 5 8 - - 1.4
19/11:00pm 11.3 10.1 9.7 90 0.8 WSW 6 11 3 6 - - 1.2
19/10:30pm 11.5 9.7 9.6 88 1.0 WSW 9 15 5 8 - - 0.4
19/10:00pm 11.7 8.7 9.1 84 1.3 SW 15 20 8 11 - - 0.2
19/09:30pm 11.8 9.1 9.0 83 1.4 WSW 13 20 7 11 - - 0.2
19/09:00pm 11.8 9.0 8.6 81 1.6 WSW 13 22 7 12 - - 0.2
19/08:30pm 12.2 8.6 8.3 77 1.9 SW 17 28 9 15 - - 0.2
19/08:00pm 13.4 10.6 8.5 72 2.5 SW 13 19 7 10 - - 0.2
19/07:30pm 14.2 10.6 8.2 67 3.0 SSW 17 33 9 18 - - 0.2
19/07:00pm 14.6 10.6 8.3 66 3.2 S 19 30 10 16 - - 0.2
19/06:30pm 14.7 11.7 9.1 69 2.9 S 15 24 8 13 - - 0.2
19/06:00pm 15.1 11.8 9.5 69 2.9 S 17 30 9 16 - - 0.2
19/05:30pm 15.5 11.7 9.8 69 3.0 S 20 30 11 16 - - 0.2
19/05:00pm 16.4 12.7 10.0 66 3.4 SSE 20 33 11 18 - - 0.2
19/04:30pm 17.1 13.1 10.5 65 3.5 SSE 22 35 12 19 - - 0.0
19/04:00pm 18.0 13.8 11.1 64 3.8 SE 24 39 13 21 - - 0.0
19/03:30pm 19.2 16.6 12.0 63 4.0 SSE 17 32 9 17 - - 0.0
19/03:00pm 19.3 16.3 11.8 62 4.2 SSE 19 28 10 15 - - 0.0
19/02:30pm 20.2 18.1 13.6 66 3.8 SE 17 26 9 14 - - 0.0
19/02:00pm 20.7 19.5 13.9 65 3.9 SE 13 28 7 15 - - 0.0
19/01:30pm 20.3 18.7 12.8 62 4.3 SE 13 24 7 13 - - 0.0
19/01:00pm 22.9 21.8 10.7 46 6.8 SW 7 13 4 7 - - 0.0
19/12:30pm 22.6 20.8 10.7 47 6.6 SW 11 20 6 11 - - 0.0
19/12:00pm 21.7 20.0 9.9 47 6.4 SW 9 17 5 9 - - 0.0
19/11:30am 21.6 19.5 11.0 51 5.9 SW 13 20 7 11 - - 0.0
19/11:00am 21.6 18.9 10.4 49 6.1 SW 15 22 8 12 - - 0.0
19/10:30am 20.7 17.5 9.9 50 5.8 SW 17 24 9 13 - - 0.0
19/10:00am 20.0 18.0 10.1 53 5.3 WSW 11 26 6 14 - - 0.0
19/09:30am 19.2 16.8 9.9 55 5.0 SW 13 24 7 13 - - 0.0
19/09:00am 18.3 16.0 10.4 60 4.2 SW 13 20 7 11 - - 6.0
19/08:30am 17.8 15.0 9.9 60 4.2 SW 15 24 8 13 - - 6.0
19/08:00am 17.0 14.4 10.8 67 3.3 SW 15 22 8 12 - - 6.0
19/07:30am 16.1 16.6 15.0 93 0.6 W 6 11 3 6 - - 6.0
19/07:00am 14.8 15.8 14.2 96 0.3 WSW 2 4 1 2 - - 6.0
19/06:30am 15.5 17.1 14.9 96 0.3 CALM 0 2 0 1 - - 6.0
19/06:00am 15.7 17.4 15.1 96 0.3 CALM 0 0 0 0 - - 6.0
19/05:30am 15.7 17.4 15.1 96 0.3 CALM 0 0 0 0 - - 6.0
19/05:00am 16.1 17.8 15.3 95 0.5 CALM 0 0 0 0 - - 6.0
19/04:30am 16.7 18.7 15.9 95 0.5 CALM 0 4 0 2 - - 6.0
19/04:00am 16.8 18.4 16.0 95 0.5 NNW 2 6 1 3 - - 6.0
19/03:30am 17.4 19.3 16.6 95 0.5 NW 2 4 1 2 - - 6.0
19/03:00am 17.5 19.0 16.7 95 0.5 NW 4 7 2 4 - - 6.0
19/02:30am 17.6 18.6 16.8 95 0.5 NNW 7 15 4 8 - - 6.0
19/02:00am 17.6 18.2 16.8 95 0.5 NNW 9 13 5 7 - - 6.0
19/01:30am 17.8 19.0 16.8 94 0.6 N 6 9 3 5 - - 6.0
19/01:00am 18.0 19.1 17.0 94 0.6 N 7 11 4 6 - - 5.8
19/12:30am 18.0 18.6 16.9 93 0.7 N 9 15 5 8 - - 5.6
19/12:00am 18.1 18.8 17.0 93 0.7 N 9 13 5 7 - - 5.2
 
Date/Time
EST
Temp
°C
App
Temp
°C
Dew
Point
Rel
Hum
%
Delta-T
°C
Wind Press
QNH
hPa
Press
MSL
hPa
Rain
since 9 am
mm
Dir
 
Spd
km/h
Gust
km/h
Spd
kts
Gust
kts
18/11:30pm 18.2 19.8 16.9 92 0.8 N 4 7 2 4 - - 4.8
18/11:00pm 18.4 19.5 16.7 90 1.0 NNW 6 9 3 5 - - 3.4
18/10:30pm 18.4 19.3 16.6 89 1.1 N 7 9 4 5 - - 2.2
18/10:00pm 18.9 19.3 16.3 85 1.6 N 9 15 5 8 - - 1.6
18/09:30pm 20.3 20.0 16.5 79 2.3 N 13 24 7 13 - - 1.0
18/09:00pm 19.9 20.3 16.3 80 2.2 NNW 9 13 5 7 - - 1.0
18/08:30pm 22.1 22.7 15.7 67 3.9 N 7 11 4 6 - - 0.2
18/08:00pm 22.1 22.8 15.7 67 3.9 N 6 11 3 6 - - 0.2
18/07:30pm 22.0 22.7 15.6 67 3.8 N 6 9 3 5 - - 0.2
18/07:00pm 22.4 22.6 15.7 66 4.0 N 9 17 5 9 - - 0.2
18/06:30pm 22.5 23.0 15.6 65 4.2 N 7 15 4 8 - - 0.2
18/06:00pm 22.7 23.3 15.8 65 4.2 N 7 13 4 7 - - 0.2
18/05:30pm 23.0 23.1 15.6 63 4.5 N 9 19 5 10 - - 0.2
18/05:00pm 23.4 23.1 15.5 61 4.8 N 11 24 6 13 - - 0.2
18/04:30pm 23.8 23.2 15.6 60 5.0 N 13 24 7 13 - - 0.2
18/04:00pm 24.4 23.0 15.6 58 5.3 N 17 26 9 14 - - 0.2
18/03:30pm 24.9 24.5 16.3 59 5.3 N 13 22 7 12 - - 0.2

Other Formats:

Comma delimited format used in spreadsheet applications
http://www.bom.gov.au/fwo/IDN60801/IDN60801.94760.axf

JavaScript Object Notation format (JSON) in row-major order
http://www.bom.gov.au/fwo/IDN60801/IDN60801.94760.json